Flight Track Log - Related Links

Times and Time Zones

All times are in EDT time to prevent confusion due to time zone crossing. See the N1AP flight status page for this flight to view local times or setup timezone preferences in your user account.

Time Position Orientation Groundspeed Altitude Reporting Facility
EDT Latitude Longitude Course Direction KTS MPH feet Rate Location/Type
Thu 01:23:46 PM 40.8167 -74.1333 270° West 224 258 1,600  Level New York TRACON
Thu 01:24:46 PM 40.8167 -74.2333 270° West 274 315 4,600 3,650 Climbing New York TRACON
Thu 01:25:46 PM 40.8167 -74.3167 270° West 239 275 8,900 3,600 Climbing New York TRACON
Thu 01:26:46 PM 40.8333 -74.4167 282° West 281 323 11,800 2,600 Climbing New York TRACON
Thu 01:27:46 PM 40.8500 -74.5167 282° West 297 342 14,100 1,150 Climbing New York TRACON
Thu 01:28:46 PM 40.8667 -74.6167 282° West 306 352 14,100 1,110 Level New York TRACON
Thu 01:30:12 PM 40.9817 -74.6989 332° Northwest 338 389 16,800 1,479 Climbing New York Center
Thu 01:31:12 PM 40.9922 -74.8203 277° West 308 354 17,700 2,050 Climbing New York Center
Thu 01:32:12 PM 40.9647 -74.9478 254° West 328 377 20,900 2,430 Climbing New York Center
Thu 01:33:13 PM 40.9394 -75.0756 255° West 352 405 22,600 1,785 Climbing New York Center
Thu 01:34:13 PM 40.9100 -75.1917 251° West 368 423 24,500 1,884 Climbing New York Center
Thu 01:35:14 PM 40.8756 -75.3347 252° West 378 435 26,400 1,550 Climbing New York Center
Thu 01:36:13 PM 40.8478 -75.4564 253° West 378 435 27,600 1,261 Climbing New York Center
Thu 01:37:13 PM 40.8336 -75.6036 263° West 384 442 28,900 1,190 Climbing New York Center
Thu 01:38:14 PM 40.8397 -75.7575 273° West 402 463 30,000 545 Climbing New York Center
Thu 01:39:14 PM 40.8472 -75.9228 273° West 434 499 30,000  Level New York Center
Thu 01:40:12 PM 40.8564 -76.0936 274° West 462 532 30,000  Level New York Center
Thu 01:41:12 PM 40.8625 -76.2753 273° West 484 557 30,000  Level New York Center
Thu 01:42:13 PM 40.8689 -76.4514 273° West 489 563 30,000  Level New York Center
Thu 01:43:13 PM 40.8725 -76.6300 272° West 489 563 30,000  Level New York Center
Thu 01:44:12 PM 40.8803 -76.8119 273° West 494 568 30,000  Level New York Center
Thu 01:45:12 PM 40.8878 -76.9856 273° West 494 568 30,000 -397 Level New York Center
Thu 01:46:13 PM 40.8928 -77.1672 272° West 494 568 29,200 -1,041 Descending New York Center
Thu 01:47:13 PM 40.8986 -77.3656 272° West 499 574 27,900 -3,136 Descending New York Center
Thu 01:49:09 PM 40.9089 -77.7203 272° West 475 547 20,000 -1,636 Descending Cleveland Center
Thu 01:50:09 PM 40.9111 -77.8906 271° West 480 552 23,100 500 Climbing Cleveland Center
Thu 01:51:09 PM 40.8814 -78.0511 256° West 451 519 21,000 -1,550 Descending Cleveland Center
Thu 01:52:09 PM 40.8239 -78.1903 241° Southwest 446 513 20,000 -1,100 Descending Cleveland Center
Thu 01:53:09 PM 40.7661 -78.3297 241° Southwest 435 501 18,800 -1,450 Descending Cleveland Center
Thu 01:54:09 PM 40.7064 -78.4686 240° Southwest 440 506 17,100 -1,650 Descending Cleveland Center
Thu 01:55:09 PM 40.6522 -78.5961 241° Southwest 433 498 15,500 -1,611 Descending Cleveland Center
Thu 01:55:57 PM 40.6144 -78.6958 244° Southwest 368 423 14,200 -1,625 Descending Cleveland Center

Login

Don't have an account? Register now (free) for customized features, flight alerts, and more!